createdAt,value
2019-02-21T00:00:49.749Z,6.80
2019-02-21T00:03:18.147Z,6.80
2019-02-21T00:05:46.504Z,6.80
2019-02-21T00:08:15.032Z,6.80
2019-02-21T00:10:43.336Z,6.90
2019-02-21T00:13:11.691Z,7.00
2019-02-21T00:15:40.191Z,7.00
2019-02-21T00:18:08.547Z,7.00
2019-02-21T00:20:36.879Z,6.90
2019-02-21T00:23:05.384Z,6.90
2019-02-21T00:25:33.786Z,7.00
2019-02-21T00:28:02.175Z,6.80
2019-02-21T00:30:35.219Z,6.80
2019-02-21T00:33:00.718Z,6.60
2019-02-21T00:35:29.135Z,6.30
2019-02-21T00:37:57.694Z,6.10
2019-02-21T00:40:26.177Z,5.90
2019-02-21T00:42:54.570Z,5.90
2019-02-21T00:45:22.950Z,5.90
2019-02-21T00:47:51.425Z,5.90
2019-02-21T00:50:19.784Z,5.90
2019-02-21T00:52:48.193Z,6.00
2019-02-21T00:55:16.654Z,6.00
2019-02-21T00:57:45.037Z,6.00
2019-02-21T01:00:14.012Z,6.00
2019-02-21T01:02:42.384Z,6.00
2019-02-21T01:05:10.832Z,6.00
2019-02-21T01:07:39.359Z,6.00
2019-02-21T01:10:08.305Z,5.90
2019-02-21T01:12:36.684Z,5.90
2019-02-21T01:15:07.982Z,5.80
2019-02-21T01:17:36.361Z,5.90
2019-02-21T01:20:06.045Z,5.90
2019-02-21T01:22:53.915Z,5.90
2019-02-21T01:25:22.388Z,5.90
2019-02-21T01:27:50.792Z,5.90
2019-02-21T01:30:19.223Z,5.90
2019-02-21T01:32:47.668Z,5.90
2019-02-21T01:35:16.061Z,5.80
2019-02-21T01:37:44.483Z,5.80
2019-02-21T01:40:12.942Z,5.90
2019-02-21T01:42:41.438Z,5.90
2019-02-21T01:45:09.918Z,5.90
2019-02-21T01:47:38.286Z,5.90
2019-02-21T01:50:08.009Z,5.90
2019-02-21T01:52:36.369Z,5.90
2019-02-21T01:55:07.475Z,5.90
2019-02-21T01:57:36.090Z,5.90
2019-02-21T02:00:07.367Z,5.90
2019-02-21T02:02:35.727Z,5.90
2019-02-21T02:05:05.426Z,6.00
2019-02-21T02:07:33.982Z,6.00
2019-02-21T02:10:02.334Z,6.10
2019-02-21T02:12:30.718Z,6.10
2019-02-21T02:14:59.197Z,6.10
2019-02-21T02:17:27.501Z,6.00
2019-02-21T02:19:55.902Z,6.00
2019-02-21T02:22:24.355Z,5.90
2019-02-21T02:24:52.719Z,5.90
2019-02-21T02:27:21.089Z,6.00
2019-02-21T02:29:49.514Z,5.90
2019-02-21T02:32:17.895Z,5.80
2019-02-21T02:34:46.290Z,5.70
2019-02-21T02:37:14.809Z,5.80
2019-02-21T02:39:43.171Z,5.70
2019-02-21T02:42:11.602Z,5.60
2019-02-21T02:44:40.088Z,5.60
2019-02-21T02:47:08.366Z,5.60
2019-02-21T02:49:36.784Z,5.60
2019-02-21T02:52:05.296Z,5.60
2019-02-21T02:54:33.725Z,5.60
2019-02-21T02:57:02.158Z,5.60
2019-02-21T02:59:40.333Z,5.60
2019-02-21T03:02:00.881Z,5.60
2019-02-21T03:04:29.450Z,5.60
2019-02-21T03:06:58.106Z,5.60
2019-02-21T03:09:26.603Z,5.70
2019-02-21T03:11:55.031Z,5.70
2019-02-21T03:14:23.451Z,5.70
2019-02-21T03:16:51.922Z,5.70
2019-02-21T03:19:20.503Z,5.70
2019-02-21T03:21:48.910Z,5.70
2019-02-21T03:24:17.260Z,5.70
2019-02-21T03:26:45.685Z,5.60
2019-02-21T03:29:14.151Z,5.60
2019-02-21T03:31:54.320Z,5.60
2019-02-21T03:34:12.626Z,5.50
2019-02-21T03:36:41.060Z,5.50
2019-02-21T03:39:10.608Z,5.50
2019-02-21T03:41:39.042Z,5.50
2019-02-21T03:44:07.433Z,5.40
2019-02-21T03:46:35.963Z,5.40
2019-02-21T03:49:04.354Z,5.30
2019-02-21T03:51:32.817Z,5.30
2019-02-21T03:54:01.250Z,5.40
2019-02-21T03:56:29.665Z,5.40
2019-02-21T03:58:58.055Z,5.50
2019-02-21T04:01:26.543Z,5.40
2019-02-21T04:03:54.975Z,5.40
2019-02-21T04:06:23.503Z,5.40
2019-02-21T04:08:52.095Z,5.40
2019-02-21T04:11:20.548Z,5.40
2019-02-21T04:13:48.980Z,5.40
2019-02-21T04:16:17.518Z,5.30
2019-02-21T04:18:45.902Z,5.30
2019-02-21T04:21:14.253Z,5.30
2019-02-21T04:23:42.723Z,5.40
2019-02-21T04:26:11.086Z,5.40
2019-02-21T04:28:39.586Z,5.40
2019-02-21T04:31:07.945Z,5.30
2019-02-21T04:33:36.446Z,5.30
2019-02-21T04:36:04.888Z,5.30
2019-02-21T04:38:33.425Z,5.40
2019-02-21T04:41:01.889Z,5.30
2019-02-21T04:43:30.334Z,5.40
2019-02-21T04:45:58.958Z,5.30
2019-02-21T04:48:27.484Z,5.30
2019-02-21T04:50:55.972Z,5.30
2019-02-21T04:53:24.428Z,5.20
2019-02-21T04:55:52.887Z,5.20
2019-02-21T04:58:21.397Z,5.10
2019-02-21T05:00:49.833Z,5.00
2019-02-21T05:03:18.246Z,4.90
2019-02-21T05:05:46.780Z,4.90
2019-02-21T05:08:15.133Z,4.80
2019-02-21T05:10:43.569Z,4.70
2019-02-21T05:13:12.130Z,4.60
2019-02-21T05:15:40.515Z,4.50
2019-02-21T05:18:08.952Z,4.40
2019-02-21T05:20:37.429Z,4.20
2019-02-21T05:23:05.758Z,4.10
2019-02-21T05:25:34.231Z,4.00
2019-02-21T05:28:04.237Z,3.90
2019-02-21T05:30:32.656Z,3.90
2019-02-21T05:33:02.774Z,3.80
2019-02-21T05:35:32.776Z,3.70
2019-02-21T05:38:08.785Z,3.70
2019-02-21T05:40:42.181Z,3.60
2019-02-21T05:43:18.451Z,3.60
2019-02-21T05:45:51.400Z,3.70
2019-02-21T05:48:33.344Z,3.70
2019-02-21T05:51:12.410Z,3.70
2019-02-21T05:53:42.473Z,3.70
2019-02-21T05:56:15.239Z,3.80
2019-02-21T05:58:50.789Z,3.60
2019-02-21T06:01:23.808Z,3.50
2019-02-21T06:04:11.976Z,3.40
2019-02-21T06:06:42.063Z,3.30
2019-02-21T06:09:17.897Z,3.20
2019-02-21T06:11:59.929Z,3.00
2019-02-21T06:14:41.897Z,2.90
2019-02-21T06:17:27.123Z,3.00
2019-02-21T06:20:13.622Z,3.00
2019-02-21T06:22:43.655Z,3.00
2019-02-21T06:25:19.789Z,2.90
2019-02-21T06:27:49.793Z,3.00
2019-02-21T06:30:19.889Z,3.00
2019-02-21T06:32:48.616Z,2.90
2019-02-21T06:35:17.055Z,2.90
2019-02-21T06:37:45.526Z,3.00
2019-02-21T06:40:14.456Z,3.10
2019-02-21T06:42:42.797Z,3.10
2019-02-21T06:45:11.210Z,3.00
2019-02-21T06:47:39.630Z,2.90
2019-02-21T06:50:08.157Z,2.80
2019-02-21T06:52:36.614Z,2.90
2019-02-21T06:55:05.065Z,3.00
2019-02-21T06:57:33.530Z,3.00
2019-02-21T07:00:01.900Z,3.00
2019-02-21T07:02:30.357Z,2.90
2019-02-21T07:04:58.787Z,2.90
2019-02-21T07:07:27.284Z,2.80
2019-02-21T07:09:55.735Z,2.80
2019-02-21T07:12:24.232Z,3.00
2019-02-21T07:14:52.610Z,3.10
2019-02-21T07:17:21.125Z,3.10
2019-02-21T07:19:49.633Z,3.10
2019-02-21T07:22:22.047Z,3.00
2019-02-21T07:24:49.790Z,2.90
2019-02-21T07:27:18.236Z,3.10
2019-02-21T07:29:46.615Z,3.10
2019-02-21T07:32:15.038Z,3.10
2019-02-21T07:34:43.541Z,3.20
2019-02-21T07:37:18.754Z,3.10
2019-02-21T07:39:42.041Z,3.30
2019-02-21T07:42:10.586Z,3.50
2019-02-21T07:44:39.009Z,3.40
2019-02-21T07:47:26.974Z,3.40
2019-02-21T07:49:55.441Z,3.50
2019-02-21T07:52:26.128Z,3.50
2019-02-21T07:55:01.254Z,3.50
2019-02-21T07:57:24.090Z,3.40
2019-02-21T07:59:52.517Z,3.40
2019-02-21T08:02:21.125Z,3.40
2019-02-21T08:04:49.537Z,3.50
2019-02-21T08:07:17.972Z,3.60
2019-02-21T08:09:46.422Z,3.80
2019-02-21T08:12:14.955Z,3.90
2019-02-21T08:14:43.523Z,3.90
2019-02-21T08:17:11.882Z,3.90
2019-02-21T08:19:40.389Z,4.00
2019-02-21T08:22:08.853Z,4.10
2019-02-21T08:24:37.348Z,4.30
2019-02-21T08:27:05.789Z,4.30
2019-02-21T08:29:34.106Z,4.40
2019-02-21T08:32:02.611Z,4.40
2019-02-21T08:34:35.402Z,4.40
2019-02-21T08:37:03.848Z,4.40
2019-02-21T08:39:32.292Z,4.50
2019-02-21T08:42:00.787Z,4.70
2019-02-21T08:44:29.178Z,4.90
2019-02-21T08:46:57.536Z,5.10
2019-02-21T08:49:25.967Z,5.20
2019-02-21T08:51:55.171Z,5.20
2019-02-21T08:54:23.755Z,5.30
2019-02-21T08:56:52.217Z,5.30
2019-02-21T08:59:20.702Z,5.40
2019-02-21T09:01:49.148Z,5.50
2019-02-21T09:04:26.816Z,5.70
2019-02-21T09:06:47.588Z,5.70
2019-02-21T09:09:16.318Z,5.80
2019-02-21T09:11:44.788Z,5.80
2019-02-21T09:14:13.233Z,5.90
2019-02-21T09:16:41.673Z,6.00
2019-02-21T09:19:10.081Z,6.20
2019-02-21T09:21:38.506Z,6.30
2019-02-21T09:24:06.872Z,6.50
2019-02-21T09:26:35.340Z,6.60
2019-02-21T09:29:03.848Z,6.70
2019-02-21T09:31:32.331Z,6.70
2019-02-21T09:34:00.777Z,6.80
2019-02-21T09:36:29.174Z,6.90
2019-02-21T09:38:57.608Z,7.10
2019-02-21T09:41:28.582Z,7.20
2019-02-21T09:43:56.217Z,7.30
2019-02-21T09:46:24.682Z,7.50
2019-02-21T09:48:53.204Z,7.50
2019-02-21T09:51:21.630Z,7.70
2019-02-21T09:53:50.137Z,7.80
2019-02-21T09:56:29.535Z,7.90
2019-02-21T09:58:48.661Z,7.90
2019-02-21T10:01:17.131Z,8.10
2019-02-21T10:03:45.573Z,8.20
2019-02-21T10:06:13.933Z,8.30
2019-02-21T10:08:42.293Z,8.40
2019-02-21T10:11:11.812Z,8.50
2019-02-21T10:13:40.172Z,8.60
2019-02-21T10:16:08.610Z,8.70
2019-02-21T10:18:37.113Z,8.80
2019-02-21T10:21:05.600Z,8.90
2019-02-21T10:23:34.154Z,9.00
2019-02-21T10:26:02.593Z,9.00
2019-02-21T10:28:32.500Z,9.10
2019-02-21T10:31:01.050Z,9.20
2019-02-21T10:33:29.528Z,9.30
2019-02-21T10:36:00.348Z,9.30
2019-02-21T10:38:28.005Z,9.50
2019-02-21T10:40:56.428Z,9.60
2019-02-21T10:43:24.807Z,9.70
2019-02-21T10:45:53.259Z,9.80
2019-02-21T10:48:21.737Z,9.90
2019-02-21T10:50:50.108Z,9.90
2019-02-21T10:53:18.541Z,10.00
2019-02-21T10:55:48.105Z,10.10
2019-02-21T10:58:16.790Z,10.10
2019-02-21T11:00:45.344Z,10.20
2019-02-21T11:03:13.699Z,10.20
2019-02-21T11:05:42.225Z,10.30
2019-02-21T11:08:10.702Z,10.30
2019-02-21T11:10:39.142Z,10.40
2019-02-21T11:13:07.542Z,10.50
2019-02-21T11:15:36.049Z,10.60
2019-02-21T11:18:04.517Z,10.70
2019-02-21T11:20:32.885Z,10.70
2019-02-21T11:23:01.421Z,10.80
2019-02-21T11:25:29.857Z,10.80
2019-02-21T11:27:58.345Z,10.90
2019-02-21T11:30:26.797Z,11.00
2019-02-21T11:32:55.249Z,11.00
2019-02-21T11:35:23.679Z,11.00
2019-02-21T11:37:52.218Z,11.10
2019-02-21T11:40:20.617Z,11.20
2019-02-21T11:42:49.056Z,11.20
2019-02-21T11:45:18.833Z,11.30
2019-02-21T11:47:47.306Z,11.40
2019-02-21T11:50:16.979Z,11.50
2019-02-21T11:52:45.383Z,11.60
2019-02-21T11:55:25.265Z,11.60
2019-02-21T11:57:53.833Z,11.60
2019-02-21T12:00:27.343Z,11.70
2019-02-21T12:02:55.807Z,11.70
2019-02-21T12:05:32.137Z,11.80
2019-02-21T12:07:54.340Z,11.80
2019-02-21T12:10:22.782Z,11.90
2019-02-21T12:12:51.204Z,12.00
2019-02-21T12:15:19.660Z,12.00
2019-02-21T12:17:48.125Z,12.10
2019-02-21T12:20:20.111Z,12.10
2019-02-21T12:22:48.565Z,12.10
2019-02-21T12:25:22.133Z,12.20
2019-02-21T12:27:50.596Z,12.30
2019-02-21T12:30:19.659Z,12.30
2019-02-21T12:32:47.999Z,12.40
2019-02-21T12:35:16.417Z,12.40
2019-02-21T12:37:44.876Z,12.50
2019-02-21T12:40:19.324Z,12.60
2019-02-21T12:42:47.747Z,12.70
2019-02-21T12:45:18.337Z,12.80
2019-02-21T12:47:53.145Z,12.80
2019-02-21T12:50:16.913Z,12.90
2019-02-21T12:52:45.414Z,13.10
2019-02-21T12:55:26.178Z,13.50
2019-02-21T12:57:44.409Z,14.70
2019-02-21T13:00:21.279Z,17.00
2019-02-21T13:02:49.724Z,18.90
2019-02-21T13:05:18.077Z,20.50
2019-02-21T13:07:47.543Z,21.70
2019-02-21T13:10:20.865Z,22.50
2019-02-21T13:12:49.360Z,22.90
2019-02-21T13:15:17.852Z,23.00
2019-02-21T13:17:46.282Z,22.90
2019-02-21T13:20:15.161Z,22.60
2019-02-21T13:22:43.562Z,22.80
2019-02-21T13:25:14.696Z,23.10
2019-02-21T13:27:43.093Z,23.60
2019-02-21T13:30:14.768Z,23.80
2019-02-21T13:32:43.143Z,23.50
2019-02-21T13:35:11.578Z,23.00
2019-02-21T13:37:40.442Z,23.20
2019-02-21T13:40:17.197Z,23.70
2019-02-21T13:42:45.681Z,24.00
2019-02-21T13:45:17.863Z,24.00
2019-02-21T13:47:46.523Z,23.90
2019-02-21T13:50:19.336Z,24.10
2019-02-21T13:52:47.857Z,24.30
2019-02-21T13:55:16.292Z,24.00
2019-02-21T13:57:44.762Z,24.00
2019-02-21T14:00:15.972Z,24.10
2019-02-21T14:02:44.364Z,24.10
2019-02-21T14:05:13.165Z,24.30
2019-02-21T14:07:41.477Z,24.60
2019-02-21T14:10:12.227Z,24.50
2019-02-21T14:12:40.673Z,24.70
2019-02-21T14:15:17.245Z,25.00
2019-02-21T14:17:46.646Z,25.00
2019-02-21T14:20:15.173Z,24.50
2019-02-21T14:22:43.708Z,24.00
2019-02-21T14:25:12.097Z,23.60
2019-02-21T14:27:40.563Z,23.00
2019-02-21T14:30:14.435Z,21.90
2019-02-21T14:33:02.346Z,21.70
2019-02-21T14:35:30.974Z,21.40
2019-02-21T14:37:59.404Z,21.10
2019-02-21T14:40:27.887Z,21.20
2019-02-21T14:42:56.403Z,21.40
2019-02-21T14:45:25.815Z,21.50
2019-02-21T14:47:54.237Z,21.90
2019-02-21T14:50:28.541Z,22.00
2019-02-21T14:52:57.043Z,21.90
2019-02-21T14:55:25.418Z,22.20
2019-02-21T14:57:53.863Z,22.30
2019-02-21T15:00:26.620Z,22.40
2019-02-21T15:02:57.540Z,22.20
2019-02-21T15:05:25.100Z,22.20
2019-02-21T15:07:53.504Z,22.00
2019-02-21T15:10:21.976Z,21.90
2019-02-21T15:13:10.005Z,22.00
2019-02-21T15:15:38.470Z,21.90
2019-02-21T15:18:10.341Z,21.90
2019-02-21T15:20:37.376Z,22.20
2019-02-21T15:23:05.957Z,22.20
2019-02-21T15:25:34.434Z,22.10
2019-02-21T15:28:03.007Z,21.90
2019-02-21T15:30:31.467Z,21.90
2019-02-21T15:32:59.915Z,21.80
2019-02-21T15:35:28.385Z,21.70
2019-02-21T15:37:56.933Z,21.40
2019-02-21T15:40:25.388Z,21.10
2019-02-21T15:42:53.820Z,20.60
2019-02-21T15:45:24.624Z,20.50
2019-02-21T15:47:53.081Z,20.20
2019-02-21T15:50:21.572Z,20.20
2019-02-21T15:52:51.096Z,20.10
2019-02-21T15:55:20.796Z,19.90
2019-02-21T15:57:49.235Z,19.50
2019-02-21T16:00:21.773Z,19.40
2019-02-21T16:02:50.218Z,19.30
2019-02-21T16:05:18.591Z,19.10
2019-02-21T16:07:47.118Z,18.80
2019-02-21T16:10:21.190Z,18.50
2019-02-21T16:12:50.156Z,18.30
2019-02-21T16:15:19.831Z,18.30
2019-02-21T16:17:48.179Z,18.20
2019-02-21T16:20:20.406Z,17.90
2019-02-21T16:22:48.994Z,17.60
2019-02-21T16:25:26.380Z,17.40
2019-02-21T16:27:55.592Z,17.10
2019-02-21T16:30:24.273Z,16.80
2019-02-21T16:32:52.677Z,16.60
2019-02-21T16:35:21.146Z,16.40
2019-02-21T16:38:09.090Z,16.20
2019-02-21T16:40:37.478Z,15.90
2019-02-21T16:43:05.864Z,15.40
2019-02-21T16:45:43.745Z,15.10
2019-02-21T16:48:04.582Z,14.90
2019-02-21T16:50:33.025Z,14.60
2019-02-21T16:53:04.441Z,14.40
2019-02-21T16:55:32.990Z,14.20
2019-02-21T16:58:01.449Z,14.00
2019-02-21T17:00:42.226Z,13.80
2019-02-21T17:02:59.866Z,13.60
2019-02-21T17:05:28.215Z,13.50
2019-02-21T17:07:56.676Z,13.40
2019-02-21T17:10:25.095Z,13.30
2019-02-21T17:12:55.118Z,13.20
2019-02-21T17:15:23.762Z,13.10
2019-02-21T17:17:52.433Z,13.00
2019-02-21T17:20:24.892Z,13.00
2019-02-21T17:23:22.537Z,12.90
2019-02-21T17:25:43.028Z,12.90
2019-02-21T17:28:11.410Z,12.70
2019-02-21T17:30:39.871Z,12.60
2019-02-21T17:33:27.773Z,12.50
2019-02-21T17:35:56.313Z,12.40
2019-02-21T17:38:24.757Z,12.30
2019-02-21T17:40:53.166Z,12.30
2019-02-21T17:43:21.562Z,12.20
2019-02-21T17:45:50.070Z,12.20
2019-02-21T17:48:20.561Z,12.10
2019-02-21T17:50:48.630Z,12.10
2019-02-21T17:53:16.992Z,12.00
2019-02-21T17:55:45.454Z,11.90
2019-02-21T17:58:14.046Z,11.90
2019-02-21T18:00:42.696Z,11.80
2019-02-21T18:03:11.156Z,11.80
2019-02-21T18:05:39.653Z,11.70
2019-02-21T18:08:08.282Z,11.70
2019-02-21T18:10:36.751Z,11.60
2019-02-21T18:13:05.255Z,11.50
2019-02-21T18:15:33.774Z,11.40
2019-02-21T18:18:02.243Z,11.30
2019-02-21T18:20:30.691Z,11.30
2019-02-21T18:22:59.124Z,11.30
2019-02-21T18:25:30.941Z,11.20
2019-02-21T18:27:59.438Z,11.20
2019-02-21T18:30:27.953Z,11.20
2019-02-21T18:32:56.411Z,11.10
2019-02-21T18:35:24.855Z,11.00
2019-02-21T18:37:53.527Z,11.00
2019-02-21T18:40:23.862Z,11.00
2019-02-21T18:42:52.292Z,11.00
2019-02-21T18:45:20.764Z,11.00
2019-02-21T18:47:49.336Z,10.90
2019-02-21T18:50:17.802Z,10.70
2019-02-21T18:52:46.266Z,10.70
2019-02-21T18:55:14.694Z,10.60
2019-02-21T18:57:43.197Z,10.40
2019-02-21T19:00:21.022Z,10.20
2019-02-21T19:02:49.461Z,10.20
2019-02-21T19:05:17.971Z,10.20
2019-02-21T19:07:46.421Z,10.20
2019-02-21T19:10:16.991Z,10.20
2019-02-21T19:12:45.359Z,10.20
2019-02-21T19:15:15.475Z,10.20
2019-02-21T19:17:43.905Z,10.20
2019-02-21T19:20:14.796Z,10.20
2019-02-21T19:22:43.315Z,10.10
2019-02-21T19:25:12.229Z,10.00
2019-02-21T19:27:40.596Z,9.90
2019-02-21T19:30:12.414Z,9.90
2019-02-21T19:32:41.969Z,9.80
2019-02-21T19:35:10.400Z,9.80
2019-02-21T19:37:46.403Z,9.70
2019-02-21T19:40:14.788Z,9.60
2019-02-21T19:42:43.254Z,9.60
2019-02-21T19:45:11.755Z,9.50
2019-02-21T19:47:40.230Z,9.50
2019-02-21T19:50:09.533Z,9.50
2019-02-21T19:52:38.015Z,9.60
2019-02-21T19:55:08.882Z,9.50
2019-02-21T19:57:37.491Z,9.50
2019-02-21T20:00:22.347Z,9.50
2019-02-21T20:02:50.833Z,9.50
2019-02-21T20:05:19.231Z,9.40
2019-02-21T20:07:47.690Z,9.30
2019-02-21T20:10:16.246Z,9.30
2019-02-21T20:12:44.719Z,9.20
2019-02-21T20:15:13.380Z,9.10
2019-02-21T20:17:41.893Z,9.10
2019-02-21T20:20:25.742Z,9.10
2019-02-21T20:22:54.226Z,9.10
2019-02-21T20:25:22.557Z,9.00
2019-02-21T20:27:51.018Z,8.90
2019-02-21T20:30:20.110Z,8.90
2019-02-21T20:32:48.710Z,8.80
2019-02-21T20:35:17.137Z,8.80
2019-02-21T20:37:45.592Z,8.70
2019-02-21T20:40:13.969Z,8.70
2019-02-21T20:42:42.331Z,8.60
2019-02-21T20:45:12.019Z,8.60
2019-02-21T20:47:40.440Z,8.60
2019-02-21T20:50:19.191Z,8.60
2019-02-21T20:52:47.550Z,8.60
2019-02-21T20:55:15.954Z,8.60
2019-02-21T20:57:44.423Z,8.60
2019-02-21T21:00:14.783Z,8.60
2019-02-21T21:02:43.561Z,8.60
2019-02-21T21:05:12.072Z,8.60
2019-02-21T21:07:40.587Z,8.50
2019-02-21T21:10:12.378Z,8.40
2019-02-21T21:12:40.828Z,8.40
2019-02-21T21:15:10.638Z,8.40
2019-02-21T21:17:39.224Z,8.40
2019-02-21T21:20:16.525Z,8.40
2019-02-21T21:22:40.353Z,8.40
2019-02-21T21:25:11.799Z,8.40
2019-02-21T21:27:40.223Z,8.40
2019-02-21T21:30:10.622Z,8.30
2019-02-21T21:32:39.274Z,8.30
2019-02-21T21:35:07.691Z,8.30
2019-02-21T21:37:36.052Z,8.30
2019-02-21T21:40:07.248Z,8.30
2019-02-21T21:42:35.726Z,8.30
2019-02-21T21:45:06.528Z,8.30
2019-02-21T21:47:35.071Z,8.30
2019-02-21T21:50:04.237Z,8.30
2019-02-21T21:52:32.708Z,8.30
2019-02-21T21:55:01.111Z,8.30
2019-02-21T21:57:29.540Z,8.30
2019-02-21T21:59:58.020Z,8.30
2019-02-21T22:02:26.431Z,8.20
2019-02-21T22:04:56.237Z,8.30
2019-02-21T22:07:24.757Z,8.30
2019-02-21T22:09:53.934Z,8.30
2019-02-21T22:12:30.721Z,8.30
2019-02-21T22:14:59.086Z,8.30
2019-02-21T22:17:27.460Z,8.30
2019-02-21T22:19:55.927Z,8.30
2019-02-21T22:22:24.335Z,8.30
2019-02-21T22:24:52.768Z,8.30
2019-02-21T22:27:21.237Z,8.30
2019-02-21T22:29:49.724Z,8.30
2019-02-21T22:32:18.139Z,8.30
2019-02-21T22:34:46.587Z,8.20
2019-02-21T22:37:14.964Z,8.20
2019-02-21T22:39:43.436Z,8.20
2019-02-21T22:42:11.868Z,8.10
2019-02-21T22:44:40.175Z,8.10
2019-02-21T22:47:08.634Z,8.10
2019-02-21T22:49:37.209Z,8.10
2019-02-21T22:52:05.660Z,8.00
2019-02-21T22:54:34.092Z,8.00
2019-02-21T22:57:02.563Z,8.00
2019-02-21T22:59:31.025Z,7.90
2019-02-21T23:01:59.480Z,7.80
2019-02-21T23:04:31.375Z,7.80
2019-02-21T23:07:03.158Z,7.80
2019-02-21T23:09:31.725Z,7.80
2019-02-21T23:12:00.153Z,7.80
2019-02-21T23:14:28.710Z,7.70
2019-02-21T23:16:57.149Z,7.70
2019-02-21T23:19:26.757Z,7.70
2019-02-21T23:21:55.131Z,7.60
2019-02-21T23:24:23.530Z,7.60
2019-02-21T23:26:52.109Z,7.70
2019-02-21T23:29:20.429Z,7.70
2019-02-21T23:31:48.889Z,7.70
2019-02-21T23:34:22.100Z,7.60
2019-02-21T23:36:50.455Z,7.70
2019-02-21T23:39:18.919Z,7.70
2019-02-21T23:41:47.394Z,7.80
2019-02-21T23:44:15.850Z,7.80
2019-02-21T23:46:45.280Z,7.90
2019-02-21T23:49:14.056Z,7.90
2019-02-21T23:51:42.609Z,7.80
2019-02-21T23:54:11.032Z,7.70
2019-02-21T23:56:39.490Z,7.70
2019-02-21T23:59:07.874Z,7.70
